sensor_id;sensor_type;location;lat;lon;timestamp;P1;durP1;ratioP1;P2;durP2;ratioP2
49193;SDS011;35029;50.804;12.866;2024-03-22T00:02:12;28.42;;;21.02;;
49193;SDS011;35029;50.804;12.866;2024-03-22T00:04:38;27.02;;;20.95;;
49193;SDS011;35029;50.804;12.866;2024-03-22T00:07:04;27.75;;;20.40;;
49193;SDS011;35029;50.804;12.866;2024-03-22T00:09:29;25.92;;;20.20;;
49193;SDS011;35029;50.804;12.866;2024-03-22T00:11:55;23.58;;;17.73;;
49193;SDS011;35029;50.804;12.866;2024-03-22T00:14:21;24.00;;;18.23;;
49193;SDS011;35029;50.804;12.866;2024-03-22T00:16:46;22.77;;;17.00;;
49193;SDS011;35029;50.804;12.866;2024-03-22T00:19:12;21.75;;;16.42;;
49193;SDS011;35029;50.804;12.866;2024-03-22T00:21:38;21.20;;;14.63;;
49193;SDS011;35029;50.804;12.866;2024-03-22T00:24:04;19.63;;;13.57;;
49193;SDS011;35029;50.804;12.866;2024-03-22T00:26:30;20.40;;;14.05;;
49193;SDS011;35029;50.804;12.866;2024-03-22T00:28:55;20.75;;;13.82;;
49193;SDS011;35029;50.804;12.866;2024-03-22T00:31:23;17.23;;;12.90;;
49193;SDS011;35029;50.804;12.866;2024-03-22T00:33:49;16.33;;;12.70;;
49193;SDS011;35029;50.804;12.866;2024-03-22T00:36:14;15.55;;;12.65;;
49193;SDS011;35029;50.804;12.866;2024-03-22T00:38:40;17.50;;;12.05;;
49193;SDS011;35029;50.804;12.866;2024-03-22T00:41:05;18.15;;;12.55;;
49193;SDS011;35029;50.804;12.866;2024-03-22T00:43:32;15.45;;;12.27;;
49193;SDS011;35029;50.804;12.866;2024-03-22T00:45:57;15.95;;;11.75;;
49193;SDS011;35029;50.804;12.866;2024-03-22T00:48:23;15.43;;;12.35;;
49193;SDS011;35029;50.804;12.866;2024-03-22T00:50:49;15.63;;;12.52;;
49193;SDS011;35029;50.804;12.866;2024-03-22T00:53:15;15.35;;;11.65;;
49193;SDS011;35029;50.804;12.866;2024-03-22T00:55:40;19.23;;;12.05;;
49193;SDS011;35029;50.804;12.866;2024-03-22T00:58:06;13.98;;;11.13;;
49193;SDS011;35029;50.804;12.866;2024-03-22T01:00:31;14.43;;;10.88;;
49193;SDS011;35029;50.804;12.866;2024-03-22T01:02:57;14.18;;;11.32;;
49193;SDS011;35029;50.804;12.866;2024-03-22T01:05:23;17.35;;;11.57;;
49193;SDS011;35029;50.804;12.866;2024-03-22T01:07:48;14.35;;;11.52;;
49193;SDS011;35029;50.804;12.866;2024-03-22T01:10:14;15.27;;;11.88;;
49193;SDS011;35029;50.804;12.866;2024-03-22T01:12:39;13.63;;;11.32;;
49193;SDS011;35029;50.804;12.866;2024-03-22T01:15:07;13.52;;;10.63;;
49193;SDS011;35029;50.804;12.866;2024-03-22T01:17:34;14.10;;;11.02;;
49193;SDS011;35029;50.804;12.866;2024-03-22T01:19:59;16.05;;;11.77;;
49193;SDS011;35029;50.804;12.866;2024-03-22T01:22:25;13.77;;;10.05;;
49193;SDS011;35029;50.804;12.866;2024-03-22T01:24:51;16.70;;;11.23;;
49193;SDS011;35029;50.804;12.866;2024-03-22T01:27:17;13.35;;;10.15;;
49193;SDS011;35029;50.804;12.866;2024-03-22T01:29:42;15.75;;;10.68;;
49193;SDS011;35029;50.804;12.866;2024-03-22T01:32:08;13.75;;;9.02;;
49193;SDS011;35029;50.804;12.866;2024-03-22T01:34:33;14.40;;;9.85;;
49193;SDS011;35029;50.804;12.866;2024-03-22T01:37:00;11.50;;;8.23;;
49193;SDS011;35029;50.804;12.866;2024-03-22T01:39:25;11.48;;;8.70;;
49193;SDS011;35029;50.804;12.866;2024-03-22T01:41:51;10.57;;;8.45;;
49193;SDS011;35029;50.804;12.866;2024-03-22T01:44:17;11.75;;;8.10;;
49193;SDS011;35029;50.804;12.866;2024-03-22T01:46:43;12.02;;;8.18;;
49193;SDS011;35029;50.804;12.866;2024-03-22T01:49:10;10.95;;;8.35;;
49193;SDS011;35029;50.804;12.866;2024-03-22T01:51:39;10.20;;;7.47;;
49193;SDS011;35029;50.804;12.866;2024-03-22T01:54:05;8.93;;;7.13;;
49193;SDS011;35029;50.804;12.866;2024-03-22T01:56:38;7.25;;;6.43;;
49193;SDS011;35029;50.804;12.866;2024-03-22T01:59:05;8.98;;;7.97;;
49193;SDS011;35029;50.804;12.866;2024-03-22T02:01:31;10.82;;;7.82;;
49193;SDS011;35029;50.804;12.866;2024-03-22T02:03:57;11.43;;;7.28;;
49193;SDS011;35029;50.804;12.866;2024-03-22T02:06:23;11.23;;;8.70;;
49193;SDS011;35029;50.804;12.866;2024-03-22T02:08:49;11.50;;;7.32;;
49193;SDS011;35029;50.804;12.866;2024-03-22T02:11:14;10.18;;;7.93;;
49193;SDS011;35029;50.804;12.866;2024-03-22T02:13:40;10.77;;;7.20;;
49193;SDS011;35029;50.804;12.866;2024-03-22T02:16:08;9.13;;;6.85;;
49193;SDS011;35029;50.804;12.866;2024-03-22T02:18:33;9.50;;;7.28;;
49193;SDS011;35029;50.804;12.866;2024-03-22T02:20:59;10.60;;;7.57;;
49193;SDS011;35029;50.804;12.866;2024-03-22T02:23:42;10.43;;;7.07;;
49193;SDS011;35029;50.804;12.866;2024-03-22T02:26:08;11.88;;;6.93;;
49193;SDS011;35029;50.804;12.866;2024-03-22T02:28:34;9.75;;;7.50;;
49193;SDS011;35029;50.804;12.866;2024-03-22T02:31:01;13.07;;;7.22;;
49193;SDS011;35029;50.804;12.866;2024-03-22T02:33:28;10.60;;;7.22;;
49193;SDS011;35029;50.804;12.866;2024-03-22T02:35:54;8.40;;;6.40;;
49193;SDS011;35029;50.804;12.866;2024-03-22T02:38:19;9.02;;;7.07;;
49193;SDS011;35029;50.804;12.866;2024-03-22T02:40:46;12.07;;;7.18;;
49193;SDS011;35029;50.804;12.866;2024-03-22T02:43:12;7.97;;;6.43;;
49193;SDS011;35029;50.804;12.866;2024-03-22T02:45:38;10.68;;;7.28;;
49193;SDS011;35029;50.804;12.866;2024-03-22T02:48:04;12.50;;;7.85;;
49193;SDS011;35029;50.804;12.866;2024-03-22T02:50:34;7.53;;;6.45;;
49193;SDS011;35029;50.804;12.866;2024-03-22T02:53:00;11.02;;;7.30;;
49193;SDS011;35029;50.804;12.866;2024-03-22T02:55:26;8.02;;;7.00;;
49193;SDS011;35029;50.804;12.866;2024-03-22T02:57:52;8.35;;;6.55;;
49193;SDS011;35029;50.804;12.866;2024-03-22T03:00:18;10.90;;;8.07;;
49193;SDS011;35029;50.804;12.866;2024-03-22T03:02:44;8.25;;;6.50;;
49193;SDS011;35029;50.804;12.866;2024-03-22T03:05:12;7.28;;;6.43;;
49193;SDS011;35029;50.804;12.866;2024-03-22T03:07:38;9.00;;;6.50;;
49193;SDS011;35029;50.804;12.866;2024-03-22T03:10:04;9.32;;;6.65;;
49193;SDS011;35029;50.804;12.866;2024-03-22T03:12:29;8.60;;;6.90;;
49193;SDS011;35029;50.804;12.866;2024-03-22T03:14:55;9.00;;;7.07;;
49193;SDS011;35029;50.804;12.866;2024-03-22T03:17:21;8.73;;;6.85;;
49193;SDS011;35029;50.804;12.866;2024-03-22T03:19:48;7.72;;;6.45;;
49193;SDS011;35029;50.804;12.866;2024-03-22T03:22:13;7.93;;;6.38;;
49193;SDS011;35029;50.804;12.866;2024-03-22T03:24:39;11.85;;;7.25;;
49193;SDS011;35029;50.804;12.866;2024-03-22T03:27:05;9.00;;;6.70;;
49193;SDS011;35029;50.804;12.866;2024-03-22T03:29:30;10.00;;;7.20;;
49193;SDS011;35029;50.804;12.866;2024-03-22T03:31:56;8.55;;;6.53;;
49193;SDS011;35029;50.804;12.866;2024-03-22T03:34:21;7.60;;;6.40;;
49193;SDS011;35029;50.804;12.866;2024-03-22T03:36:47;9.10;;;6.63;;
49193;SDS011;35029;50.804;12.866;2024-03-22T03:39:13;11.63;;;7.72;;
49193;SDS011;35029;50.804;12.866;2024-03-22T03:41:38;9.77;;;7.32;;
49193;SDS011;35029;50.804;12.866;2024-03-22T03:44:04;10.65;;;6.78;;
49193;SDS011;35029;50.804;12.866;2024-03-22T03:46:29;9.55;;;6.88;;
49193;SDS011;35029;50.804;12.866;2024-03-22T03:48:55;9.63;;;7.45;;
49193;SDS011;35029;50.804;12.866;2024-03-22T03:51:21;10.65;;;7.95;;
49193;SDS011;35029;50.804;12.866;2024-03-22T03:53:46;10.75;;;7.15;;
49193;SDS011;35029;50.804;12.866;2024-03-22T03:56:12;7.07;;;5.97;;
49193;SDS011;35029;50.804;12.866;2024-03-22T03:58:37;9.43;;;7.10;;
49193;SDS011;35029;50.804;12.866;2024-03-22T04:01:06;10.88;;;7.13;;
49193;SDS011;35029;50.804;12.866;2024-03-22T04:03:32;12.70;;;7.03;;
49193;SDS011;35029;50.804;12.866;2024-03-22T04:05:58;9.80;;;7.03;;
49193;SDS011;35029;50.804;12.866;2024-03-22T04:08:27;10.68;;;7.50;;
49193;SDS011;35029;50.804;12.866;2024-03-22T04:10:53;8.48;;;7.03;;
49193;SDS011;35029;50.804;12.866;2024-03-22T04:13:26;14.80;;;7.50;;
49193;SDS011;35029;50.804;12.866;2024-03-22T04:15:52;10.73;;;7.13;;
49193;SDS011;35029;50.804;12.866;2024-03-22T04:18:19;9.25;;;7.70;;
49193;SDS011;35029;50.804;12.866;2024-03-22T04:20:54;9.00;;;7.25;;
49193;SDS011;35029;50.804;12.866;2024-03-22T04:23:27;9.00;;;7.10;;
49193;SDS011;35029;50.804;12.866;2024-03-22T04:25:56;10.00;;;6.78;;
49193;SDS011;35029;50.804;12.866;2024-03-22T04:28:24;13.75;;;8.07;;
49193;SDS011;35029;50.804;12.866;2024-03-22T04:30:54;8.35;;;7.45;;
49193;SDS011;35029;50.804;12.866;2024-03-22T04:33:21;12.13;;;7.28;;
49193;SDS011;35029;50.804;12.866;2024-03-22T04:35:46;10.07;;;7.35;;
49193;SDS011;35029;50.804;12.866;2024-03-22T04:38:12;9.63;;;7.13;;
49193;SDS011;35029;50.804;12.866;2024-03-22T04:40:37;8.70;;;6.57;;
49193;SDS011;35029;50.804;12.866;2024-03-22T04:43:04;15.25;;;6.70;;
49193;SDS011;35029;50.804;12.866;2024-03-22T04:45:30;9.27;;;6.75;;
49193;SDS011;35029;50.804;12.866;2024-03-22T04:47:55;8.25;;;6.35;;
49193;SDS011;35029;50.804;12.866;2024-03-22T04:50:21;9.15;;;6.63;;
49193;SDS011;35029;50.804;12.866;2024-03-22T04:52:46;7.03;;;6.30;;
49193;SDS011;35029;50.804;12.866;2024-03-22T04:55:12;8.27;;;5.95;;
49193;SDS011;35029;50.804;12.866;2024-03-22T04:57:37;10.43;;;6.72;;
49193;SDS011;35029;50.804;12.866;2024-03-22T05:00:03;8.88;;;6.38;;
49193;SDS011;35029;50.804;12.866;2024-03-22T05:02:34;9.57;;;6.32;;
49193;SDS011;35029;50.804;12.866;2024-03-22T05:04:59;9.07;;;6.53;;
49193;SDS011;35029;50.804;12.866;2024-03-22T05:07:25;10.07;;;7.22;;
49193;SDS011;35029;50.804;12.866;2024-03-22T05:09:50;9.05;;;6.57;;
49193;SDS011;35029;50.804;12.866;2024-03-22T05:12:16;9.27;;;6.85;;
49193;SDS011;35029;50.804;12.866;2024-03-22T05:14:42;11.43;;;7.38;;
49193;SDS011;35029;50.804;12.866;2024-03-22T05:17:07;9.63;;;7.30;;
49193;SDS011;35029;50.804;12.866;2024-03-22T05:19:33;9.30;;;6.43;;
49193;SDS011;35029;50.804;12.866;2024-03-22T05:21:58;10.18;;;7.00;;
49193;SDS011;35029;50.804;12.866;2024-03-22T05:24:25;8.85;;;7.25;;
49193;SDS011;35029;50.804;12.866;2024-03-22T05:26:51;12.32;;;7.18;;
49193;SDS011;35029;50.804;12.866;2024-03-22T05:29:16;10.98;;;7.53;;
49193;SDS011;35029;50.804;12.866;2024-03-22T05:31:46;10.32;;;6.85;;
49193;SDS011;35029;50.804;12.866;2024-03-22T05:34:22;11.75;;;7.50;;
49193;SDS011;35029;50.804;12.866;2024-03-22T05:36:48;9.05;;;5.82;;
49193;SDS011;35029;50.804;12.866;2024-03-22T05:39:14;9.20;;;6.80;;
49193;SDS011;35029;50.804;12.866;2024-03-22T05:41:40;9.52;;;7.38;;
49193;SDS011;35029;50.804;12.866;2024-03-22T05:44:06;9.23;;;7.25;;
49193;SDS011;35029;50.804;12.866;2024-03-22T05:46:32;12.70;;;7.35;;
49193;SDS011;35029;50.804;12.866;2024-03-22T05:48:58;12.02;;;8.10;;
49193;SDS011;35029;50.804;12.866;2024-03-22T05:51:24;10.05;;;7.28;;
49193;SDS011;35029;50.804;12.866;2024-03-22T05:53:50;9.25;;;6.38;;
49193;SDS011;35029;50.804;12.866;2024-03-22T05:56:16;10.32;;;7.50;;
49193;SDS011;35029;50.804;12.866;2024-03-22T05:58:42;11.20;;;7.85;;
49193;SDS011;35029;50.804;12.866;2024-03-22T06:01:07;8.48;;;7.13;;
49193;SDS011;35029;50.804;12.866;2024-03-22T06:03:33;10.93;;;7.05;;
49193;SDS011;35029;50.804;12.866;2024-03-22T06:05:59;13.05;;;8.05;;
49193;SDS011;35029;50.804;12.866;2024-03-22T06:08:25;16.73;;;8.70;;
49193;SDS011;35029;50.804;12.866;2024-03-22T06:10:54;11.85;;;8.35;;
49193;SDS011;35029;50.804;12.866;2024-03-22T06:13:25;11.73;;;7.30;;
49193;SDS011;35029;50.804;12.866;2024-03-22T06:15:50;11.40;;;8.88;;
49193;SDS011;35029;50.804;12.866;2024-03-22T06:18:16;12.55;;;8.30;;
49193;SDS011;35029;50.804;12.866;2024-03-22T06:20:42;8.57;;;7.57;;
49193;SDS011;35029;50.804;12.866;2024-03-22T06:23:08;12.77;;;8.15;;
49193;SDS011;35029;50.804;12.866;2024-03-22T06:25:34;9.85;;;7.10;;
49193;SDS011;35029;50.804;12.866;2024-03-22T06:28:00;11.85;;;7.72;;
49193;SDS011;35029;50.804;12.866;2024-03-22T06:30:26;10.23;;;7.88;;
49193;SDS011;35029;50.804;12.866;2024-03-22T06:32:54;13.40;;;8.38;;
49193;SDS011;35029;50.804;12.866;2024-03-22T06:35:21;12.77;;;8.13;;
49193;SDS011;35029;50.804;12.866;2024-03-22T06:37:47;14.32;;;8.93;;
49193;SDS011;35029;50.804;12.866;2024-03-22T06:40:14;13.88;;;8.75;;
49193;SDS011;35029;50.804;12.866;2024-03-22T06:42:40;11.90;;;8.75;;
49193;SDS011;35029;50.804;12.866;2024-03-22T06:45:06;11.85;;;8.52;;
49193;SDS011;35029;50.804;12.866;2024-03-22T06:47:32;10.73;;;8.70;;
49193;SDS011;35029;50.804;12.866;2024-03-22T06:49:58;13.35;;;9.07;;
49193;SDS011;35029;50.804;12.866;2024-03-22T06:52:23;11.80;;;8.30;;
49193;SDS011;35029;50.804;12.866;2024-03-22T06:54:49;12.27;;;8.52;;
49193;SDS011;35029;50.804;12.866;2024-03-22T06:57:15;13.73;;;7.93;;
49193;SDS011;35029;50.804;12.866;2024-03-22T06:59:41;13.18;;;8.63;;
49193;SDS011;35029;50.804;12.866;2024-03-22T07:02:07;12.35;;;8.65;;
49193;SDS011;35029;50.804;12.866;2024-03-22T07:04:35;12.85;;;8.25;;
49193;SDS011;35029;50.804;12.866;2024-03-22T07:07:01;11.85;;;8.50;;
49193;SDS011;35029;50.804;12.866;2024-03-22T07:09:26;10.90;;;8.40;;
49193;SDS011;35029;50.804;12.866;2024-03-22T07:11:55;8.82;;;7.45;;
49193;SDS011;35029;50.804;12.866;2024-03-22T07:14:20;12.75;;;9.23;;
49193;SDS011;35029;50.804;12.866;2024-03-22T07:16:49;8.73;;;7.72;;
49193;SDS011;35029;50.804;12.866;2024-03-22T07:19:15;12.55;;;8.18;;
49193;SDS011;35029;50.804;12.866;2024-03-22T07:21:41;13.32;;;8.25;;
49193;SDS011;35029;50.804;12.866;2024-03-22T07:24:07;13.13;;;7.75;;
49193;SDS011;35029;50.804;12.866;2024-03-22T07:26:33;10.68;;;8.32;;
49193;SDS011;35029;50.804;12.866;2024-03-22T07:28:59;10.70;;;7.60;;
49193;SDS011;35029;50.804;12.866;2024-03-22T07:31:26;10.13;;;8.18;;
49193;SDS011;35029;50.804;12.866;2024-03-22T07:33:52;12.43;;;8.27;;
49193;SDS011;35029;50.804;12.866;2024-03-22T07:36:18;11.23;;;8.07;;
49193;SDS011;35029;50.804;12.866;2024-03-22T07:38:44;10.77;;;8.20;;
49193;SDS011;35029;50.804;12.866;2024-03-22T07:41:10;12.85;;;8.20;;
49193;SDS011;35029;50.804;12.866;2024-03-22T07:43:36;12.93;;;8.82;;
49193;SDS011;35029;50.804;12.866;2024-03-22T07:46:02;11.60;;;8.45;;
49193;SDS011;35029;50.804;12.866;2024-03-22T07:48:27;12.85;;;8.85;;
49193;SDS011;35029;50.804;12.866;2024-03-22T07:50:59;11.23;;;8.98;;
49193;SDS011;35029;50.804;12.866;2024-03-22T07:53:26;14.88;;;9.10;;
49193;SDS011;35029;50.804;12.866;2024-03-22T07:55:52;12.27;;;8.68;;
49193;SDS011;35029;50.804;12.866;2024-03-22T07:58:19;13.98;;;9.38;;
49193;SDS011;35029;50.804;12.866;2024-03-22T08:00:45;13.25;;;9.77;;
49193;SDS011;35029;50.804;12.866;2024-03-22T08:03:13;11.07;;;8.32;;
49193;SDS011;35029;50.804;12.866;2024-03-22T08:05:40;15.90;;;9.52;;
49193;SDS011;35029;50.804;12.866;2024-03-22T08:08:06;11.27;;;8.57;;
49193;SDS011;35029;50.804;12.866;2024-03-22T08:10:32;13.85;;;9.43;;
49193;SDS011;35029;50.804;12.866;2024-03-22T08:12:58;13.98;;;8.90;;
49193;SDS011;35029;50.804;12.866;2024-03-22T08:15:23;13.43;;;9.25;;
49193;SDS011;35029;50.804;12.866;2024-03-22T08:17:49;12.68;;;8.75;;
49193;SDS011;35029;50.804;12.866;2024-03-22T08:20:14;16.25;;;9.18;;
49193;SDS011;35029;50.804;12.866;2024-03-22T08:22:40;13.73;;;8.93;;
49193;SDS011;35029;50.804;12.866;2024-03-22T08:25:06;14.52;;;9.07;;
49193;SDS011;35029;50.804;12.866;2024-03-22T08:27:33;13.40;;;9.70;;
49193;SDS011;35029;50.804;12.866;2024-03-22T08:29:59;14.05;;;9.15;;
49193;SDS011;35029;50.804;12.866;2024-03-22T08:32:25;13.50;;;8.98;;
49193;SDS011;35029;50.804;12.866;2024-03-22T08:34:51;13.25;;;9.05;;
49193;SDS011;35029;50.804;12.866;2024-03-22T08:37:16;14.40;;;8.77;;
49193;SDS011;35029;50.804;12.866;2024-03-22T08:39:43;12.43;;;9.18;;
49193;SDS011;35029;50.804;12.866;2024-03-22T08:42:08;12.13;;;9.13;;
49193;SDS011;35029;50.804;12.866;2024-03-22T08:44:34;13.30;;;9.05;;
49193;SDS011;35029;50.804;12.866;2024-03-22T08:47:00;13.38;;;9.35;;
49193;SDS011;35029;50.804;12.866;2024-03-22T08:49:26;12.40;;;8.82;;
49193;SDS011;35029;50.804;12.866;2024-03-22T08:51:51;13.63;;;9.63;;
49193;SDS011;35029;50.804;12.866;2024-03-22T08:54:17;11.63;;;8.85;;
49193;SDS011;35029;50.804;12.866;2024-03-22T08:56:43;13.13;;;9.70;;
49193;SDS011;35029;50.804;12.866;2024-03-22T08:59:09;13.85;;;9.18;;
49193;SDS011;35029;50.804;12.866;2024-03-22T09:01:35;13.18;;;8.82;;
49193;SDS011;35029;50.804;12.866;2024-03-22T09:04:01;15.77;;;9.32;;
49193;SDS011;35029;50.804;12.866;2024-03-22T09:06:27;13.77;;;9.95;;
49193;SDS011;35029;50.804;12.866;2024-03-22T09:08:53;14.73;;;9.82;;
49193;SDS011;35029;50.804;12.866;2024-03-22T09:11:23;13.30;;;9.15;;
49193;SDS011;35029;50.804;12.866;2024-03-22T09:13:53;14.20;;;10.32;;
49193;SDS011;35029;50.804;12.866;2024-03-22T09:16:19;14.48;;;11.27;;
49193;SDS011;35029;50.804;12.866;2024-03-22T09:18:48;17.67;;;10.88;;
49193;SDS011;35029;50.804;12.866;2024-03-22T09:21:14;16.90;;;11.23;;
49193;SDS011;35029;50.804;12.866;2024-03-22T09:23:40;17.77;;;10.70;;
49193;SDS011;35029;50.804;12.866;2024-03-22T09:26:06;16.88;;;12.18;;
49193;SDS011;35029;50.804;12.866;2024-03-22T09:28:31;14.40;;;10.35;;
49193;SDS011;35029;50.804;12.866;2024-03-22T09:30:57;18.48;;;12.38;;
49193;SDS011;35029;50.804;12.866;2024-03-22T09:33:22;17.13;;;11.98;;
49193;SDS011;35029;50.804;12.866;2024-03-22T09:35:48;15.10;;;10.38;;
49193;SDS011;35029;50.804;12.866;2024-03-22T09:38:14;18.00;;;12.80;;
49193;SDS011;35029;50.804;12.866;2024-03-22T09:40:43;22.02;;;14.10;;
49193;SDS011;35029;50.804;12.866;2024-03-22T09:43:09;20.38;;;12.88;;
49193;SDS011;35029;50.804;12.866;2024-03-22T09:45:36;22.00;;;13.23;;
49193;SDS011;35029;50.804;12.866;2024-03-22T09:48:04;20.55;;;13.43;;
49193;SDS011;35029;50.804;12.866;2024-03-22T09:50:30;19.98;;;13.20;;
49193;SDS011;35029;50.804;12.866;2024-03-22T09:52:56;17.30;;;11.95;;
49193;SDS011;35029;50.804;12.866;2024-03-22T09:55:22;19.02;;;13.05;;
49193;SDS011;35029;50.804;12.866;2024-03-22T09:57:49;19.00;;;13.32;;
49193;SDS011;35029;50.804;12.866;2024-03-22T10:00:16;19.98;;;13.25;;
49193;SDS011;35029;50.804;12.866;2024-03-22T10:02:47;17.25;;;12.18;;
49193;SDS011;35029;50.804;12.866;2024-03-22T10:05:14;18.10;;;13.10;;
49193;SDS011;35029;50.804;12.866;2024-03-22T10:07:40;18.73;;;12.45;;
49193;SDS011;35029;50.804;12.866;2024-03-22T10:10:08;17.20;;;13.05;;
49193;SDS011;35029;50.804;12.866;2024-03-22T10:12:34;20.88;;;12.85;;
49193;SDS011;35029;50.804;12.866;2024-03-22T10:14:59;20.50;;;13.50;;
49193;SDS011;35029;50.804;12.866;2024-03-22T10:17:31;18.50;;;12.32;;
49193;SDS011;35029;50.804;12.866;2024-03-22T10:19:56;17.75;;;11.55;;
49193;SDS011;35029;50.804;12.866;2024-03-22T10:22:22;19.40;;;12.93;;
49193;SDS011;35029;50.804;12.866;2024-03-22T10:24:50;18.33;;;12.75;;
49193;SDS011;35029;50.804;12.866;2024-03-22T10:27:16;18.80;;;12.80;;
49193;SDS011;35029;50.804;12.866;2024-03-22T10:29:43;16.67;;;11.63;;
49193;SDS011;35029;50.804;12.866;2024-03-22T10:32:09;16.80;;;11.80;;
49193;SDS011;35029;50.804;12.866;2024-03-22T10:34:37;16.27;;;11.27;;
49193;SDS011;35029;50.804;12.866;2024-03-22T10:37:04;17.42;;;12.70;;
49193;SDS011;35029;50.804;12.866;2024-03-22T10:39:30;21.08;;;12.48;;
49193;SDS011;35029;50.804;12.866;2024-03-22T10:41:56;18.25;;;12.52;;
49193;SDS011;35029;50.804;12.866;2024-03-22T10:44:21;18.30;;;12.57;;
49193;SDS011;35029;50.804;12.866;2024-03-22T10:46:49;19.60;;;12.98;;
49193;SDS011;35029;50.804;12.866;2024-03-22T10:49:23;16.63;;;12.15;;
49193;SDS011;35029;50.804;12.866;2024-03-22T10:51:51;15.13;;;11.20;;
49193;SDS011;35029;50.804;12.866;2024-03-22T10:54:25;18.00;;;12.38;;
49193;SDS011;35029;50.804;12.866;2024-03-22T10:56:52;20.35;;;12.18;;
49193;SDS011;35029;50.804;12.866;2024-03-22T10:59:19;16.98;;;11.95;;
49193;SDS011;35029;50.804;12.866;2024-03-22T11:01:47;22.50;;;12.38;;
49193;SDS011;35029;50.804;12.866;2024-03-22T11:04:15;18.67;;;11.90;;
49193;SDS011;35029;50.804;12.866;2024-03-22T11:06:51;16.65;;;11.43;;
49193;SDS011;35029;50.804;12.866;2024-03-22T11:09:23;15.52;;;11.65;;
49193;SDS011;35029;50.804;12.866;2024-03-22T11:11:52;18.77;;;12.68;;
49193;SDS011;35029;50.804;12.866;2024-03-22T11:14:19;17.02;;;11.43;;
49193;SDS011;35029;50.804;12.866;2024-03-22T11:16:51;17.58;;;12.25;;
49193;SDS011;35029;50.804;12.866;2024-03-22T11:19:20;16.90;;;12.63;;
49193;SDS011;35029;50.804;12.866;2024-03-22T11:21:47;17.35;;;12.45;;
49193;SDS011;35029;50.804;12.866;2024-03-22T11:24:13;17.88;;;12.23;;
49193;SDS011;35029;50.804;12.866;2024-03-22T11:26:38;16.80;;;11.35;;
49193;SDS011;35029;50.804;12.866;2024-03-22T11:29:04;14.73;;;11.15;;
49193;SDS011;35029;50.804;12.866;2024-03-22T11:31:30;19.15;;;12.48;;
49193;SDS011;35029;50.804;12.866;2024-03-22T11:33:56;16.52;;;10.80;;
49193;SDS011;35029;50.804;12.866;2024-03-22T11:36:27;14.07;;;10.48;;
49193;SDS011;35029;50.804;12.866;2024-03-22T11:38:53;15.05;;;11.70;;
49193;SDS011;35029;50.804;12.866;2024-03-22T11:41:21;14.48;;;11.10;;
49193;SDS011;35029;50.804;12.866;2024-03-22T11:43:50;17.60;;;12.23;;
49193;SDS011;35029;50.804;12.866;2024-03-22T11:46:17;17.38;;;11.80;;
49193;SDS011;35029;50.804;12.866;2024-03-22T11:48:44;18.13;;;12.82;;
49193;SDS011;35029;50.804;12.866;2024-03-22T11:51:09;19.70;;;11.95;;
49193;SDS011;35029;50.804;12.866;2024-03-22T11:53:35;15.60;;;11.82;;
49193;SDS011;35029;50.804;12.866;2024-03-22T11:56:02;16.63;;;12.20;;
49193;SDS011;35029;50.804;12.866;2024-03-22T11:58:29;17.85;;;12.38;;
49193;SDS011;35029;50.804;12.866;2024-03-22T12:00:56;14.43;;;10.90;;
49193;SDS011;35029;50.804;12.866;2024-03-22T12:03:22;18.23;;;11.68;;
49193;SDS011;35029;50.804;12.866;2024-03-22T12:05:49;17.75;;;11.35;;
49193;SDS011;35029;50.804;12.866;2024-03-22T12:08:16;14.40;;;10.75;;
49193;SDS011;35029;50.804;12.866;2024-03-22T12:10:43;19.27;;;12.20;;
49193;SDS011;35029;50.804;12.866;2024-03-22T12:13:09;17.10;;;11.65;;
49193;SDS011;35029;50.804;12.866;2024-03-22T12:15:34;16.80;;;12.18;;
49193;SDS011;35029;50.804;12.866;2024-03-22T12:18:01;17.55;;;12.13;;
49193;SDS011;35029;50.804;12.866;2024-03-22T12:20:27;14.02;;;11.43;;
49193;SDS011;35029;50.804;12.866;2024-03-22T12:22:52;17.17;;;11.90;;
49193;SDS011;35029;50.804;12.866;2024-03-22T12:25:18;16.80;;;11.10;;
49193;SDS011;35029;50.804;12.866;2024-03-22T12:27:43;16.75;;;11.32;;
49193;SDS011;35029;50.804;12.866;2024-03-22T12:30:11;16.17;;;11.05;;
49193;SDS011;35029;50.804;12.866;2024-03-22T12:32:37;16.50;;;11.02;;
49193;SDS011;35029;50.804;12.866;2024-03-22T12:35:03;14.60;;;11.77;;
49193;SDS011;35029;50.804;12.866;2024-03-22T12:37:30;15.73;;;11.05;;
49193;SDS011;35029;50.804;12.866;2024-03-22T12:39:55;18.25;;;11.80;;
49193;SDS011;35029;50.804;12.866;2024-03-22T12:42:21;16.02;;;12.02;;
49193;SDS011;35029;50.804;12.866;2024-03-22T12:44:46;15.18;;;12.52;;
49193;SDS011;35029;50.804;12.866;2024-03-22T12:47:12;16.35;;;11.88;;
49193;SDS011;35029;50.804;12.866;2024-03-22T12:49:38;20.65;;;12.52;;
49193;SDS011;35029;50.804;12.866;2024-03-22T12:52:04;16.85;;;12.27;;
49193;SDS011;35029;50.804;12.866;2024-03-22T12:54:30;15.55;;;11.60;;
49193;SDS011;35029;50.804;12.866;2024-03-22T12:56:56;14.90;;;11.30;;
49193;SDS011;35029;50.804;12.866;2024-03-22T12:59:21;17.60;;;12.20;;
49193;SDS011;35029;50.804;12.866;2024-03-22T13:01:47;17.08;;;11.95;;
49193;SDS011;35029;50.804;12.866;2024-03-22T13:04:13;18.98;;;12.35;;
49193;SDS011;35029;50.804;12.866;2024-03-22T13:06:38;16.58;;;13.27;;
49193;SDS011;35029;50.804;12.866;2024-03-22T13:09:04;15.15;;;11.73;;
49193;SDS011;35029;50.804;12.866;2024-03-22T13:11:30;17.77;;;12.82;;
49193;SDS011;35029;50.804;12.866;2024-03-22T13:13:57;19.13;;;13.07;;
49193;SDS011;35029;50.804;12.866;2024-03-22T13:16:22;18.80;;;12.32;;
49193;SDS011;35029;50.804;12.866;2024-03-22T13:18:49;18.55;;;12.90;;
49193;SDS011;35029;50.804;12.866;2024-03-22T13:21:14;23.73;;;12.43;;
49193;SDS011;35029;50.804;12.866;2024-03-22T13:23:40;18.02;;;13.00;;
49193;SDS011;35029;50.804;12.866;2024-03-22T13:26:05;17.83;;;13.32;;
49193;SDS011;35029;50.804;12.866;2024-03-22T13:28:32;19.00;;;14.38;;
49193;SDS011;35029;50.804;12.866;2024-03-22T13:31:01;19.63;;;13.70;;
49193;SDS011;35029;50.804;12.866;2024-03-22T13:33:33;18.95;;;13.18;;
49193;SDS011;35029;50.804;12.866;2024-03-22T13:36:01;16.88;;;12.27;;
49193;SDS011;35029;50.804;12.866;2024-03-22T13:38:27;19.00;;;14.27;;
49193;SDS011;35029;50.804;12.866;2024-03-22T13:40:57;16.70;;;12.93;;
49193;SDS011;35029;50.804;12.866;2024-03-22T13:43:29;24.50;;;14.02;;
49193;SDS011;35029;50.804;12.866;2024-03-22T13:45:55;17.60;;;13.93;;
49193;SDS011;35029;50.804;12.866;2024-03-22T13:48:24;20.23;;;15.07;;
49193;SDS011;35029;50.804;12.866;2024-03-22T13:53:19;17.20;;;12.85;;
49193;SDS011;35029;50.804;12.866;2024-03-22T13:55:52;21.33;;;14.48;;
49193;SDS011;35029;50.804;12.866;2024-03-22T13:58:34;18.20;;;13.38;;
49193;SDS011;35029;50.804;12.866;2024-03-22T14:01:00;18.77;;;13.15;;
49193;SDS011;35029;50.804;12.866;2024-03-22T14:03:26;19.42;;;13.27;;
49193;SDS011;35029;50.804;12.866;2024-03-22T14:05:52;17.90;;;13.95;;
49193;SDS011;35029;50.804;12.866;2024-03-22T14:08:17;21.63;;;14.27;;
49193;SDS011;35029;50.804;12.866;2024-03-22T14:10:43;17.05;;;13.55;;
49193;SDS011;35029;50.804;12.866;2024-03-22T14:13:08;24.30;;;14.60;;
49193;SDS011;35029;50.804;12.866;2024-03-22T14:15:34;19.52;;;13.23;;
49193;SDS011;35029;50.804;12.866;2024-03-22T14:18:00;21.08;;;13.63;;